Main page
METAR-TAF:

METAR-TAF

Airports :

Donegal Airport

Donegal, Ireland

latitude: 55-02-39N, longitude: 8-20-28W, elevation: 9 m

Current weather observation

The report was made 11 hours and 19 minutes ago, at 18:00 UTC
Wind 12 kt from the South/Southwest
Temperature 16°C
Humidity 82%
Pressure 1004 hPa
Visibility 10 km or more
Few clouds at a height of 2300 ft
Overcast at a height of 2700 ft

METAR: EIDL 181800Z 21012KT 9999 FEW023 OVC027 16/13 Q1004

Time: 06:19 (05:19 UTC)

Forecast

The report was made 12 hours and 19 minutes ago, at 17:00 UTC
Forecast valid from 18 at 18 UTC to 19 at 03 UTC
Wind 12 kt from the South/Southwest
Visibility 10 km or more
Broken clouds at a height of 2000 ft
Temporary
from 18 at 18 UTC to 19 at 03 UTC
Broken clouds at a height of 800 ft

TAF: EIDL 181700Z 1818/1903 21012KT 9999 BKN020 TEMPO 1818/1903 BKN008

Weather observations and forecasts of more than 4000 airports (METAR and TAF reports).

The available stations are represented by yellow and red dots on the map.

Hover mouse over dot to see the name of the station.

Then click to see weather observations and forecasts.

To change the map : click on the green buttons with a black cross to zoom in, on the green button with a dash to zoom out, or on the green arrows for adjacent maps.


METAR-TAF: